sensor_id;sensor_type;location;lat;lon;timestamp;P1;P2;P0
63915;PMS5003;50094;51.356;-0.196;2022-09-27T00:01:12;0;0;
63915;PMS5003;50094;51.356;-0.196;2022-09-27T00:03:40;0;0;
63915;PMS5003;50094;51.356;-0.196;2022-09-27T00:06:09;1;0;
63915;PMS5003;50094;51.356;-0.196;2022-09-27T00:08:39;0;0;
63915;PMS5003;50094;51.356;-0.196;2022-09-27T00:11:09;0;0;
63915;PMS5003;50094;51.356;-0.196;2022-09-27T00:13:40;0;0;
63915;PMS5003;50094;51.356;-0.196;2022-09-27T00:16:08;0;0;
63915;PMS5003;50094;51.356;-0.196;2022-09-27T00:18:36;0;0;
63915;PMS5003;50094;51.356;-0.196;2022-09-27T00:21:04;0;0;
63915;PMS5003;50094;51.356;-0.196;2022-09-27T00:23:32;0;0;
63915;PMS5003;50094;51.356;-0.196;2022-09-27T00:26:00;0;0;
63915;PMS5003;50094;51.356;-0.196;2022-09-27T00:28:27;0;0;
63915;PMS5003;50094;51.356;-0.196;2022-09-27T00:30:55;0;0;
63915;PMS5003;50094;51.356;-0.196;2022-09-27T00:33:23;0;0;
63915;PMS5003;50094;51.356;-0.196;2022-09-27T00:35:50;1;1;
63915;PMS5003;50094;51.356;-0.196;2022-09-27T00:38:18;0;0;
63915;PMS5003;50094;51.356;-0.196;2022-09-27T00:40:46;0;0;
63915;PMS5003;50094;51.356;-0.196;2022-09-27T00:43:15;1;1;
63915;PMS5003;50094;51.356;-0.196;2022-09-27T00:45:45;0;0;
63915;PMS5003;50094;51.356;-0.196;2022-09-27T00:48:19;0;0;
63915;PMS5003;50094;51.356;-0.196;2022-09-27T00:50:50;0;0;
63915;PMS5003;50094;51.356;-0.196;2022-09-27T00:53:23;3;0;
63915;PMS5003;50094;51.356;-0.196;2022-09-27T00:55:55;0;0;
63915;PMS5003;50094;51.356;-0.196;2022-09-27T00:58:25;0;0;
63915;PMS5003;50094;51.356;-0.196;2022-09-27T01:00:57;0;0;
63915;PMS5003;50094;51.356;-0.196;2022-09-27T01:03:29;0;0;
63915;PMS5003;50094;51.356;-0.196;2022-09-27T01:06:02;0;0;
63915;PMS5003;50094;51.356;-0.196;2022-09-27T01:08:34;0;0;
63915;PMS5003;50094;51.356;-0.196;2022-09-27T01:11:06;0;0;
63915;PMS5003;50094;51.356;-0.196;2022-09-27T01:13:42;0;0;
63915;PMS5003;50094;51.356;-0.196;2022-09-27T01:16:26;0;0;
63915;PMS5003;50094;51.356;-0.196;2022-09-27T01:19:04;0;0;
63915;PMS5003;50094;51.356;-0.196;2022-09-27T01:21:44;0;0;
63915;PMS5003;50094;51.356;-0.196;2022-09-27T01:25:30;0;0;
63915;PMS5003;50094;51.356;-0.196;2022-09-27T01:28:19;0;0;
63915;PMS5003;50094;51.356;-0.196;2022-09-27T01:30:53;0;0;
63915;PMS5003;50094;51.356;-0.196;2022-09-27T01:33:31;0;0;
63915;PMS5003;50094;51.356;-0.196;2022-09-27T01:36:08;0;0;
63915;PMS5003;50094;51.356;-0.196;2022-09-27T01:38:46;0;0;
63915;PMS5003;50094;51.356;-0.196;2022-09-27T01:41:24;0;0;
63915;PMS5003;50094;51.356;-0.196;2022-09-27T01:44:01;0;0;
63915;PMS5003;50094;51.356;-0.196;2022-09-27T01:46:31;1;1;
63915;PMS5003;50094;51.356;-0.196;2022-09-27T01:49:03;0;0;
63915;PMS5003;50094;51.356;-0.196;2022-09-27T01:51:35;0;0;
63915;PMS5003;50094;51.356;-0.196;2022-09-27T01:54:06;1;0;
63915;PMS5003;50094;51.356;-0.196;2022-09-27T01:56:38;0;0;
63915;PMS5003;50094;51.356;-0.196;2022-09-27T01:59:10;0;0;
63915;PMS5003;50094;51.356;-0.196;2022-09-27T02:01:42;1;0;
63915;PMS5003;50094;51.356;-0.196;2022-09-27T02:04:14;0;0;
63915;PMS5003;50094;51.356;-0.196;2022-09-27T02:06:47;0;0;
63915;PMS5003;50094;51.356;-0.196;2022-09-27T02:09:21;0;0;
63915;PMS5003;50094;51.356;-0.196;2022-09-27T02:11:54;0;0;
63915;PMS5003;50094;51.356;-0.196;2022-09-27T02:14:26;0;0;
63915;PMS5003;50094;51.356;-0.196;2022-09-27T02:17:04;0;0;
63915;PMS5003;50094;51.356;-0.196;2022-09-27T02:19:40;0;0;
63915;PMS5003;50094;51.356;-0.196;2022-09-27T02:22:16;0;0;
63915;PMS5003;50094;51.356;-0.196;2022-09-27T02:24:53;0;0;
63915;PMS5003;50094;51.356;-0.196;2022-09-27T02:27:28;0;0;
63915;PMS5003;50094;51.356;-0.196;2022-09-27T02:30:00;0;0;
63915;PMS5003;50094;51.356;-0.196;2022-09-27T02:32:31;0;0;
63915;PMS5003;50094;51.356;-0.196;2022-09-27T02:35:01;0;0;
63915;PMS5003;50094;51.356;-0.196;2022-09-27T02:37:32;0;0;
63915;PMS5003;50094;51.356;-0.196;2022-09-27T02:40:00;0;0;
63915;PMS5003;50094;51.356;-0.196;2022-09-27T02:42:28;0;0;
63915;PMS5003;50094;51.356;-0.196;2022-09-27T02:44:56;0;0;
63915;PMS5003;50094;51.356;-0.196;2022-09-27T02:47:27;0;0;
63915;PMS5003;50094;51.356;-0.196;2022-09-27T02:50:11;0;0;
63915;PMS5003;50094;51.356;-0.196;2022-09-27T02:52:49;0;0;
63915;PMS5003;50094;51.356;-0.196;2022-09-27T02:55:29;0;0;
63915;PMS5003;50094;51.356;-0.196;2022-09-27T02:58:08;0;0;
63915;PMS5003;50094;51.356;-0.196;2022-09-27T03:00:47;0;0;
63915;PMS5003;50094;51.356;-0.196;2022-09-27T03:03:25;0;0;
63915;PMS5003;50094;51.356;-0.196;2022-09-27T03:05:57;0;0;
63915;PMS5003;50094;51.356;-0.196;2022-09-27T03:08:29;0;0;
63915;PMS5003;50094;51.356;-0.196;2022-09-27T03:10:57;1;0;
63915;PMS5003;50094;51.356;-0.196;2022-09-27T03:13:25;0;0;
63915;PMS5003;50094;51.356;-0.196;2022-09-27T03:15:53;0;0;
63915;PMS5003;50094;51.356;-0.196;2022-09-27T03:18:21;0;0;
63915;PMS5003;50094;51.356;-0.196;2022-09-27T03:20:48;1;1;
63915;PMS5003;50094;51.356;-0.196;2022-09-27T03:23:18;1;0;
63915;PMS5003;50094;51.356;-0.196;2022-09-27T03:25:45;0;0;
63915;PMS5003;50094;51.356;-0.196;2022-09-27T03:28:13;0;0;
63915;PMS5003;50094;51.356;-0.196;2022-09-27T03:30:41;0;0;
63915;PMS5003;50094;51.356;-0.196;2022-09-27T03:33:10;0;0;
63915;PMS5003;50094;51.356;-0.196;2022-09-27T03:35:37;0;0;
63915;PMS5003;50094;51.356;-0.196;2022-09-27T03:38:07;0;0;
63915;PMS5003;50094;51.356;-0.196;2022-09-27T03:40:35;0;0;
63915;PMS5003;50094;51.356;-0.196;2022-09-27T03:43:03;0;0;
63915;PMS5003;50094;51.356;-0.196;2022-09-27T03:45:31;0;0;
63915;PMS5003;50094;51.356;-0.196;2022-09-27T03:47:58;0;0;
63915;PMS5003;50094;51.356;-0.196;2022-09-27T03:50:26;0;0;
63915;PMS5003;50094;51.356;-0.196;2022-09-27T03:52:54;0;0;
63915;PMS5003;50094;51.356;-0.196;2022-09-27T03:55:21;0;0;
63915;PMS5003;50094;51.356;-0.196;2022-09-27T03:57:49;0;0;
63915;PMS5003;50094;51.356;-0.196;2022-09-27T04:00:17;0;0;
63915;PMS5003;50094;51.356;-0.196;2022-09-27T04:02:44;0;0;
63915;PMS5003;50094;51.356;-0.196;2022-09-27T04:05:12;0;0;
63915;PMS5003;50094;51.356;-0.196;2022-09-27T04:07:44;0;0;
63915;PMS5003;50094;51.356;-0.196;2022-09-27T04:10:12;0;0;
63915;PMS5003;50094;51.356;-0.196;2022-09-27T04:12:39;0;0;
63915;PMS5003;50094;51.356;-0.196;2022-09-27T04:15:07;0;0;
63915;PMS5003;50094;51.356;-0.196;2022-09-27T04:17:36;0;0;
63915;PMS5003;50094;51.356;-0.196;2022-09-27T04:20:04;0;0;
63915;PMS5003;50094;51.356;-0.196;2022-09-27T04:22:32;0;0;
63915;PMS5003;50094;51.356;-0.196;2022-09-27T04:25:00;0;0;
63915;PMS5003;50094;51.356;-0.196;2022-09-27T04:27:27;0;0;
63915;PMS5003;50094;51.356;-0.196;2022-09-27T04:29:55;0;0;
63915;PMS5003;50094;51.356;-0.196;2022-09-27T04:32:23;0;0;
63915;PMS5003;50094;51.356;-0.196;2022-09-27T04:34:50;0;0;
63915;PMS5003;50094;51.356;-0.196;2022-09-27T04:37:18;1;1;
63915;PMS5003;50094;51.356;-0.196;2022-09-27T04:39:46;0;0;
63915;PMS5003;50094;51.356;-0.196;2022-09-27T04:42:13;0;0;
63915;PMS5003;50094;51.356;-0.196;2022-09-27T04:44:41;0;0;
63915;PMS5003;50094;51.356;-0.196;2022-09-27T04:47:09;0;0;
63915;PMS5003;50094;51.356;-0.196;2022-09-27T04:49:36;0;0;
63915;PMS5003;50094;51.356;-0.196;2022-09-27T04:52:04;0;0;
63915;PMS5003;50094;51.356;-0.196;2022-09-27T04:54:32;0;0;
63915;PMS5003;50094;51.356;-0.196;2022-09-27T04:56:59;0;0;
63915;PMS5003;50094;51.356;-0.196;2022-09-27T04:59:27;0;0;
63915;PMS5003;50094;51.356;-0.196;2022-09-27T05:01:55;0;0;
63915;PMS5003;50094;51.356;-0.196;2022-09-27T05:04:22;0;0;
63915;PMS5003;50094;51.356;-0.196;2022-09-27T05:06:50;0;0;
63915;PMS5003;50094;51.356;-0.196;2022-09-27T05:09:18;0;0;
63915;PMS5003;50094;51.356;-0.196;2022-09-27T05:11:46;0;0;
63915;PMS5003;50094;51.356;-0.196;2022-09-27T05:14:13;0;0;
63915;PMS5003;50094;51.356;-0.196;2022-09-27T05:16:41;0;0;
63915;PMS5003;50094;51.356;-0.196;2022-09-27T05:19:09;0;0;
63915;PMS5003;50094;51.356;-0.196;2022-09-27T05:21:36;0;0;
63915;PMS5003;50094;51.356;-0.196;2022-09-27T05:24:04;0;0;
63915;PMS5003;50094;51.356;-0.196;2022-09-27T05:26:32;0;0;
63915;PMS5003;50094;51.356;-0.196;2022-09-27T05:28:59;0;0;
63915;PMS5003;50094;51.356;-0.196;2022-09-27T05:31:27;0;0;
63915;PMS5003;50094;51.356;-0.196;2022-09-27T05:33:55;0;0;
63915;PMS5003;50094;51.356;-0.196;2022-09-27T05:36:22;0;0;
63915;PMS5003;50094;51.356;-0.196;2022-09-27T05:38:50;0;0;
63915;PMS5003;50094;51.356;-0.196;2022-09-27T05:41:18;1;1;
63915;PMS5003;50094;51.356;-0.196;2022-09-27T05:43:45;0;0;
63915;PMS5003;50094;51.356;-0.196;2022-09-27T05:46:13;0;0;
63915;PMS5003;50094;51.356;-0.196;2022-09-27T05:48:41;0;0;
63915;PMS5003;50094;51.356;-0.196;2022-09-27T05:51:08;0;0;
63915;PMS5003;50094;51.356;-0.196;2022-09-27T05:53:36;0;0;
63915;PMS5003;50094;51.356;-0.196;2022-09-27T05:56:03;3;2;
63915;PMS5003;50094;51.356;-0.196;2022-09-27T05:58:31;0;0;
63915;PMS5003;50094;51.356;-0.196;2022-09-27T06:00:58;0;0;
63915;PMS5003;50094;51.356;-0.196;2022-09-27T06:03:26;0;0;
63915;PMS5003;50094;51.356;-0.196;2022-09-27T06:05:53;0;0;
63915;PMS5003;50094;51.356;-0.196;2022-09-27T06:08:21;0;0;
63915;PMS5003;50094;51.356;-0.196;2022-09-27T06:10:48;1;1;
63915;PMS5003;50094;51.356;-0.196;2022-09-27T06:13:16;0;0;
63915;PMS5003;50094;51.356;-0.196;2022-09-27T06:15:44;0;0;
63915;PMS5003;50094;51.356;-0.196;2022-09-27T06:18:12;0;0;
63915;PMS5003;50094;51.356;-0.196;2022-09-27T06:20:41;0;0;
63915;PMS5003;50094;51.356;-0.196;2022-09-27T06:23:09;0;0;
63915;PMS5003;50094;51.356;-0.196;2022-09-27T06:25:38;1;1;
63915;PMS5003;50094;51.356;-0.196;2022-09-27T06:28:06;1;0;
63915;PMS5003;50094;51.356;-0.196;2022-09-27T06:30:36;0;0;
63915;PMS5003;50094;51.356;-0.196;2022-09-27T06:33:05;0;0;
63915;PMS5003;50094;51.356;-0.196;2022-09-27T06:35:33;0;0;
63915;PMS5003;50094;51.356;-0.196;2022-09-27T06:38:02;0;0;
63915;PMS5003;50094;51.356;-0.196;2022-09-27T06:40:31;0;0;
63915;PMS5003;50094;51.356;-0.196;2022-09-27T06:43:00;0;0;
63915;PMS5003;50094;51.356;-0.196;2022-09-27T06:45:29;0;0;
63915;PMS5003;50094;51.356;-0.196;2022-09-27T06:47:57;0;0;
63915;PMS5003;50094;51.356;-0.196;2022-09-27T06:50:25;0;0;
63915;PMS5003;50094;51.356;-0.196;2022-09-27T06:52:53;0;0;
63915;PMS5003;50094;51.356;-0.196;2022-09-27T06:55:20;0;0;
63915;PMS5003;50094;51.356;-0.196;2022-09-27T06:57:48;0;0;
63915;PMS5003;50094;51.356;-0.196;2022-09-27T07:00:19;0;0;
63915;PMS5003;50094;51.356;-0.196;2022-09-27T07:02:47;0;0;
63915;PMS5003;50094;51.356;-0.196;2022-09-27T07:05:15;0;0;
63915;PMS5003;50094;51.356;-0.196;2022-09-27T07:07:42;0;0;
63915;PMS5003;50094;51.356;-0.196;2022-09-27T07:10:10;0;0;
63915;PMS5003;50094;51.356;-0.196;2022-09-27T07:12:38;0;0;
63915;PMS5003;50094;51.356;-0.196;2022-09-27T07:15:06;0;0;
63915;PMS5003;50094;51.356;-0.196;2022-09-27T07:17:33;0;0;
63915;PMS5003;50094;51.356;-0.196;2022-09-27T07:20:01;0;0;
63915;PMS5003;50094;51.356;-0.196;2022-09-27T07:22:29;0;0;
63915;PMS5003;50094;51.356;-0.196;2022-09-27T07:24:57;0;0;
63915;PMS5003;50094;51.356;-0.196;2022-09-27T07:27:25;0;0;
63915;PMS5003;50094;51.356;-0.196;2022-09-27T07:29:52;0;0;
63915;PMS5003;50094;51.356;-0.196;2022-09-27T07:32:20;0;0;
63915;PMS5003;50094;51.356;-0.196;2022-09-27T07:34:48;0;0;
63915;PMS5003;50094;51.356;-0.196;2022-09-27T07:37:15;0;0;
63915;PMS5003;50094;51.356;-0.196;2022-09-27T07:39:43;0;0;
63915;PMS5003;50094;51.356;-0.196;2022-09-27T07:42:11;0;0;
63915;PMS5003;50094;51.356;-0.196;2022-09-27T07:44:38;0;0;
63915;PMS5003;50094;51.356;-0.196;2022-09-27T07:47:06;0;0;
63915;PMS5003;50094;51.356;-0.196;2022-09-27T07:49:34;0;0;
63915;PMS5003;50094;51.356;-0.196;2022-09-27T07:52:01;1;0;
63915;PMS5003;50094;51.356;-0.196;2022-09-27T07:54:29;0;0;
63915;PMS5003;50094;51.356;-0.196;2022-09-27T07:56:57;0;0;
63915;PMS5003;50094;51.356;-0.196;2022-09-27T07:59:24;0;0;
63915;PMS5003;50094;51.356;-0.196;2022-09-27T08:01:52;0;0;
63915;PMS5003;50094;51.356;-0.196;2022-09-27T08:04:20;0;0;
63915;PMS5003;50094;51.356;-0.196;2022-09-27T08:06:48;2;1;
63915;PMS5003;50094;51.356;-0.196;2022-09-27T08:09:15;3;2;
63915;PMS5003;50094;51.356;-0.196;2022-09-27T08:11:43;14;12;
63915;PMS5003;50094;51.356;-0.196;2022-09-27T08:14:10;6;3;
63915;PMS5003;50094;51.356;-0.196;2022-09-27T08:16:37;9;3;
63915;PMS5003;50094;51.356;-0.196;2022-09-27T08:19:05;7;3;
63915;PMS5003;50094;51.356;-0.196;2022-09-27T08:21:33;4;3;
63915;PMS5003;50094;51.356;-0.196;2022-09-27T08:24:01;4;3;
63915;PMS5003;50094;51.356;-0.196;2022-09-27T08:26:28;2;2;
63915;PMS5003;50094;51.356;-0.196;2022-09-27T08:28:56;4;3;
63915;PMS5003;50094;51.356;-0.196;2022-09-27T08:31:24;4;3;
63915;PMS5003;50094;51.356;-0.196;2022-09-27T08:33:51;4;2;
63915;PMS5003;50094;51.356;-0.196;2022-09-27T08:36:19;3;3;
63915;PMS5003;50094;51.356;-0.196;2022-09-27T08:38:47;9;5;
63915;PMS5003;50094;51.356;-0.196;2022-09-27T08:41:18;9;7;
63915;PMS5003;50094;51.356;-0.196;2022-09-27T08:43:58;3;1;
63915;PMS5003;50094;51.356;-0.196;2022-09-27T08:46:36;5;1;
63915;PMS5003;50094;51.356;-0.196;2022-09-27T08:49:16;5;2;
63915;PMS5003;50094;51.356;-0.196;2022-09-27T08:51:47;4;4;
63915;PMS5003;50094;51.356;-0.196;2022-09-27T08:54:18;5;5;
63915;PMS5003;50094;51.356;-0.196;2022-09-27T08:56:49;2;2;
63915;PMS5003;50094;51.356;-0.196;2022-09-27T08:59:19;1;1;
63915;PMS5003;50094;51.356;-0.196;2022-09-27T09:01:50;7;4;
63915;PMS5003;50094;51.356;-0.196;2022-09-27T09:04:22;0;0;
63915;PMS5003;50094;51.356;-0.196;2022-09-27T09:06:55;2;2;
63915;PMS5003;50094;51.356;-0.196;2022-09-27T09:09:34;4;2;
63915;PMS5003;50094;51.356;-0.196;2022-09-27T09:12:13;2;1;
63915;PMS5003;50094;51.356;-0.196;2022-09-27T09:14:55;2;1;
63915;PMS5003;50094;51.356;-0.196;2022-09-27T09:17:36;4;4;
63915;PMS5003;50094;51.356;-0.196;2022-09-27T09:20:21;5;2;
63915;PMS5003;50094;51.356;-0.196;2022-09-27T09:23:05;2;2;
63915;PMS5003;50094;51.356;-0.196;2022-09-27T09:25:45;6;4;
63915;PMS5003;50094;51.356;-0.196;2022-09-27T09:28:23;1;1;
63915;PMS5003;50094;51.356;-0.196;2022-09-27T09:31:04;1;1;
63915;PMS5003;50094;51.356;-0.196;2022-09-27T09:33:40;0;0;
63915;PMS5003;50094;51.356;-0.196;2022-09-27T09:36:12;2;2;
63915;PMS5003;50094;51.356;-0.196;2022-09-27T09:38:51;2;2;
63915;PMS5003;50094;51.356;-0.196;2022-09-27T09:41:21;5;2;
63915;PMS5003;50094;51.356;-0.196;2022-09-27T09:43:55;1;1;
63915;PMS5003;50094;51.356;-0.196;2022-09-27T09:46:30;2;2;
63915;PMS5003;50094;51.356;-0.196;2022-09-27T09:49:03;2;1;
63915;PMS5003;50094;51.356;-0.196;2022-09-27T09:51:38;0;0;
63915;PMS5003;50094;51.356;-0.196;2022-09-27T09:54:13;0;0;
63915;PMS5003;50094;51.356;-0.196;2022-09-27T09:56:48;1;1;
63915;PMS5003;50094;51.356;-0.196;2022-09-27T09:59:23;4;2;
63915;PMS5003;50094;51.356;-0.196;2022-09-27T10:01:57;1;1;
63915;PMS5003;50094;51.356;-0.196;2022-09-27T10:04:39;0;0;
63915;PMS5003;50094;51.356;-0.196;2022-09-27T10:07:07;3;0;
63915;PMS5003;50094;51.356;-0.196;2022-09-27T10:09:35;0;0;
63915;PMS5003;50094;51.356;-0.196;2022-09-27T10:12:02;1;1;
63915;PMS5003;50094;51.356;-0.196;2022-09-27T10:14:30;2;2;
63915;PMS5003;50094;51.356;-0.196;2022-09-27T10:16:58;0;0;
63915;PMS5003;50094;51.356;-0.196;2022-09-27T10:19:29;2;1;
63915;PMS5003;50094;51.356;-0.196;2022-09-27T10:22:00;2;1;
63915;PMS5003;50094;51.356;-0.196;2022-09-27T10:24:29;1;1;
63915;PMS5003;50094;51.356;-0.196;2022-09-27T10:27:20;0;0;
63915;PMS5003;50094;51.356;-0.196;2022-09-27T10:29:48;1;1;
63915;PMS5003;50094;51.356;-0.196;2022-09-27T10:32:24;0;0;
63915;PMS5003;50094;51.356;-0.196;2022-09-27T10:34:54;0;0;
63915;PMS5003;50094;51.356;-0.196;2022-09-27T10:37:22;2;1;
63915;PMS5003;50094;51.356;-0.196;2022-09-27T10:39:49;0;0;
63915;PMS5003;50094;51.356;-0.196;2022-09-27T10:42:19;0;0;
63915;PMS5003;50094;51.356;-0.196;2022-09-27T10:44:47;1;1;
63915;PMS5003;50094;51.356;-0.196;2022-09-27T10:47:16;1;1;
63915;PMS5003;50094;51.356;-0.196;2022-09-27T10:49:47;0;0;
63915;PMS5003;50094;51.356;-0.196;2022-09-27T10:52:16;0;0;
63915;PMS5003;50094;51.356;-0.196;2022-09-27T10:54:51;0;0;
63915;PMS5003;50094;51.356;-0.196;2022-09-27T10:57:21;0;0;
63915;PMS5003;50094;51.356;-0.196;2022-09-27T10:59:50;0;0;
63915;PMS5003;50094;51.356;-0.196;2022-09-27T11:02:20;1;0;
63915;PMS5003;50094;51.356;-0.196;2022-09-27T11:05:05;1;0;
63915;PMS5003;50094;51.356;-0.196;2022-09-27T11:07:36;0;0;
63915;PMS5003;50094;51.356;-0.196;2022-09-27T11:10:20;0;0;
63915;PMS5003;50094;51.356;-0.196;2022-09-27T11:13:04;1;1;
63915;PMS5003;50094;51.356;-0.196;2022-09-27T11:15:36;1;1;
63915;PMS5003;50094;51.356;-0.196;2022-09-27T11:18:18;2;0;
63915;PMS5003;50094;51.356;-0.196;2022-09-27T11:20:55;0;0;
63915;PMS5003;50094;51.356;-0.196;2022-09-27T11:23:32;1;1;
63915;PMS5003;50094;51.356;-0.196;2022-09-27T11:26:16;1;1;
63915;PMS5003;50094;51.356;-0.196;2022-09-27T11:28:54;0;0;
63915;PMS5003;50094;51.356;-0.196;2022-09-27T11:31:35;2;2;
63915;PMS5003;50094;51.356;-0.196;2022-09-27T11:34:13;0;0;
63915;PMS5003;50094;51.356;-0.196;2022-09-27T11:37:00;1;1;
63915;PMS5003;50094;51.356;-0.196;2022-09-27T11:39:40;1;0;
63915;PMS5003;50094;51.356;-0.196;2022-09-27T11:42:27;3;0;
63915;PMS5003;50094;51.356;-0.196;2022-09-27T11:45:17;0;0;
63915;PMS5003;50094;51.356;-0.196;2022-09-27T11:47:54;1;1;
63915;PMS5003;50094;51.356;-0.196;2022-09-27T11:50:42;1;1;
63915;PMS5003;50094;51.356;-0.196;2022-09-27T11:53:25;2;0;
63915;PMS5003;50094;51.356;-0.196;2022-09-27T11:56:03;1;0;
63915;PMS5003;50094;51.356;-0.196;2022-09-27T11:58:39;0;0;
63915;PMS5003;50094;51.356;-0.196;2022-09-27T12:01:17;0;0;
63915;PMS5003;50094;51.356;-0.196;2022-09-27T12:04:01;1;1;
63915;PMS5003;50094;51.356;-0.196;2022-09-27T12:06:48;0;0;
63915;PMS5003;50094;51.356;-0.196;2022-09-27T12:09:21;0;0;
63915;PMS5003;50094;51.356;-0.196;2022-09-27T12:11:56;0;0;
63915;PMS5003;50094;51.356;-0.196;2022-09-27T12:14:31;2;2;
63915;PMS5003;50094;51.356;-0.196;2022-09-27T12:17:02;0;0;
63915;PMS5003;50094;51.356;-0.196;2022-09-27T12:19:34;2;0;
63915;PMS5003;50094;51.356;-0.196;2022-09-27T12:22:06;1;1;
63915;PMS5003;50094;51.356;-0.196;2022-09-27T12:24:38;1;0;
63915;PMS5003;50094;51.356;-0.196;2022-09-27T12:27:07;0;0;
63915;PMS5003;50094;51.356;-0.196;2022-09-27T12:29:40;2;1;
63915;PMS5003;50094;51.356;-0.196;2022-09-27T12:32:10;0;0;
63915;PMS5003;50094;51.356;-0.196;2022-09-27T12:34:44;0;0;
63915;PMS5003;50094;51.356;-0.196;2022-09-27T12:37:17;1;1;
63915;PMS5003;50094;51.356;-0.196;2022-09-27T12:39:50;0;0;
63915;PMS5003;50094;51.356;-0.196;2022-09-27T12:42:22;0;0;
63915;PMS5003;50094;51.356;-0.196;2022-09-27T12:44:51;1;0;
63915;PMS5003;50094;51.356;-0.196;2022-09-27T12:47:22;0;0;
63915;PMS5003;50094;51.356;-0.196;2022-09-27T12:50:07;0;0;
63915;PMS5003;50094;51.356;-0.196;2022-09-27T12:52:42;0;0;
63915;PMS5003;50094;51.356;-0.196;2022-09-27T12:55:19;0;0;
63915;PMS5003;50094;51.356;-0.196;2022-09-27T12:58:10;0;0;
63915;PMS5003;50094;51.356;-0.196;2022-09-27T13:00:49;2;0;
63915;PMS5003;50094;51.356;-0.196;2022-09-27T13:03:33;1;1;
63915;PMS5003;50094;51.356;-0.196;2022-09-27T13:06:49;0;0;
63915;PMS5003;50094;51.356;-0.196;2022-09-27T13:09:28;0;0;
63915;PMS5003;50094;51.356;-0.196;2022-09-27T13:12:09;0;0;
63915;PMS5003;50094;51.356;-0.196;2022-09-27T13:14:41;1;0;
63915;PMS5003;50094;51.356;-0.196;2022-09-27T13:19:36;0;0;
63915;PMS5003;50094;51.356;-0.196;2022-09-27T13:22:06;0;0;
63915;PMS5003;50094;51.356;-0.196;2022-09-27T13:24:43;0;0;
63915;PMS5003;50094;51.356;-0.196;2022-09-27T13:27:34;0;0;
63915;PMS5003;50094;51.356;-0.196;2022-09-27T13:30:42;0;0;
63915;PMS5003;50094;51.356;-0.196;2022-09-27T13:33:31;0;0;
63915;PMS5003;50094;51.356;-0.196;2022-09-27T13:36:06;0;0;
63915;PMS5003;50094;51.356;-0.196;2022-09-27T13:38:50;0;0;
63915;PMS5003;50094;51.356;-0.196;2022-09-27T13:41:25;0;0;
63915;PMS5003;50094;51.356;-0.196;2022-09-27T13:43:57;0;0;
63915;PMS5003;50094;51.356;-0.196;2022-09-27T13:46:33;0;0;
63915;PMS5003;50094;51.356;-0.196;2022-09-27T13:49:03;0;0;
63915;PMS5003;50094;51.356;-0.196;2022-09-27T13:51:41;0;0;
63915;PMS5003;50094;51.356;-0.196;2022-09-27T13:54:34;0;0;
63915;PMS5003;50094;51.356;-0.196;2022-09-27T13:57:04;0;0;
63915;PMS5003;50094;51.356;-0.196;2022-09-27T14:00:40;0;0;
63915;PMS5003;50094;51.356;-0.196;2022-09-27T14:03:14;0;0;
63915;PMS5003;50094;51.356;-0.196;2022-09-27T14:05:46;0;0;
63915;PMS5003;50094;51.356;-0.196;2022-09-27T14:08:19;0;0;
63915;PMS5003;50094;51.356;-0.196;2022-09-27T14:10:53;0;0;
63915;PMS5003;50094;51.356;-0.196;2022-09-27T14:13:21;0;0;
63915;PMS5003;50094;51.356;-0.196;2022-09-27T14:15:51;1;1;
63915;PMS5003;50094;51.356;-0.196;2022-09-27T14:18:21;0;0;
63915;PMS5003;50094;51.356;-0.196;2022-09-27T14:20:50;0;0;
63915;PMS5003;50094;51.356;-0.196;2022-09-27T14:23:19;1;1;
63915;PMS5003;50094;51.356;-0.196;2022-09-27T14:25:49;0;0;
63915;PMS5003;50094;51.356;-0.196;2022-09-27T14:28:18;0;0;
63915;PMS5003;50094;51.356;-0.196;2022-09-27T14:30:47;0;0;
63915;PMS5003;50094;51.356;-0.196;2022-09-27T14:33:31;0;0;
63915;PMS5003;50094;51.356;-0.196;2022-09-27T14:36:00;0;0;
63915;PMS5003;50094;51.356;-0.196;2022-09-27T14:38:29;0;0;
63915;PMS5003;50094;51.356;-0.196;2022-09-27T14:40:59;0;0;
63915;PMS5003;50094;51.356;-0.196;2022-09-27T14:43:27;1;0;
63915;PMS5003;50094;51.356;-0.196;2022-09-27T14:45:56;0;0;
63915;PMS5003;50094;51.356;-0.196;2022-09-27T14:48:26;0;0;
63915;PMS5003;50094;51.356;-0.196;2022-09-27T14:50:56;2;2;
63915;PMS5003;50094;51.356;-0.196;2022-09-27T14:53:25;0;0;
63915;PMS5003;50094;51.356;-0.196;2022-09-27T14:55:54;0;0;
63915;PMS5003;50094;51.356;-0.196;2022-09-27T14:58:22;0;0;
63915;PMS5003;50094;51.356;-0.196;2022-09-27T15:00:49;0;0;
63915;PMS5003;50094;51.356;-0.196;2022-09-27T15:03:19;0;0;
63915;PMS5003;50094;51.356;-0.196;2022-09-27T15:05:49;0;0;
63915;PMS5003;50094;51.356;-0.196;2022-09-27T15:08:18;0;0;
63915;PMS5003;50094;51.356;-0.196;2022-09-27T15:10:49;0;0;
63915;PMS5003;50094;51.356;-0.196;2022-09-27T15:13:17;0;0;
63915;PMS5003;50094;51.356;-0.196;2022-09-27T15:15:45;0;0;
63915;PMS5003;50094;51.356;-0.196;2022-09-27T15:18:31;0;0;
63915;PMS5003;50094;51.356;-0.196;2022-09-27T15:21:05;0;0;
63915;PMS5003;50094;51.356;-0.196;2022-09-27T15:23:34;0;0;
63915;PMS5003;50094;51.356;-0.196;2022-09-27T15:26:05;0;0;
63915;PMS5003;50094;51.356;-0.196;2022-09-27T15:28:36;1;0;
63915;PMS5003;50094;51.356;-0.196;2022-09-27T15:31:09;0;0;
63915;PMS5003;50094;51.356;-0.196;2022-09-27T15:33:38;0;0;
63915;PMS5003;50094;51.356;-0.196;2022-09-27T15:36:07;0;0;
63915;PMS5003;50094;51.356;-0.196;2022-09-27T15:38:36;1;1;
63915;PMS5003;50094;51.356;-0.196;2022-09-27T15:41:07;0;0;
63915;PMS5003;50094;51.356;-0.196;2022-09-27T15:43:37;0;0;
63915;PMS5003;50094;51.356;-0.196;2022-09-27T15:46:24;0;0;
63915;PMS5003;50094;51.356;-0.196;2022-09-27T15:49:26;0;0;
63915;PMS5003;50094;51.356;-0.196;2022-09-27T15:51:55;0;0;
63915;PMS5003;50094;51.356;-0.196;2022-09-27T15:54:24;0;0;
63915;PMS5003;50094;51.356;-0.196;2022-09-27T15:56:53;0;0;
63915;PMS5003;50094;51.356;-0.196;2022-09-27T15:59:21;0;0;
63915;PMS5003;50094;51.356;-0.196;2022-09-27T16:01:50;0;0;
63915;PMS5003;50094;51.356;-0.196;2022-09-27T16:04:20;0;0;
63915;PMS5003;50094;51.356;-0.196;2022-09-27T16:06:48;0;0;
63915;PMS5003;50094;51.356;-0.196;2022-09-27T16:09:16;0;0;
63915;PMS5003;50094;51.356;-0.196;2022-09-27T16:11:45;0;0;
63915;PMS5003;50094;51.356;-0.196;2022-09-27T16:14:14;0;0;
63915;PMS5003;50094;51.356;-0.196;2022-09-27T16:16:42;0;0;
63915;PMS5003;50094;51.356;-0.196;2022-09-27T16:19:11;0;0;
63915;PMS5003;50094;51.356;-0.196;2022-09-27T16:21:38;0;0;
63915;PMS5003;50094;51.356;-0.196;2022-09-27T16:24:06;0;0;
63915;PMS5003;50094;51.356;-0.196;2022-09-27T16:26:33;1;0;
63915;PMS5003;50094;51.356;-0.196;2022-09-27T16:29:01;0;0;
63915;PMS5003;50094;51.356;-0.196;2022-09-27T16:31:29;0;0;
63915;PMS5003;50094;51.356;-0.196;2022-09-27T16:33:57;0;0;
63915;PMS5003;50094;51.356;-0.196;2022-09-27T16:36:23;0;0;
63915;PMS5003;50094;51.356;-0.196;2022-09-27T16:38:51;0;0;
63915;PMS5003;50094;51.356;-0.196;2022-09-27T16:41:19;0;0;
63915;PMS5003;50094;51.356;-0.196;2022-09-27T16:43:48;0;0;
63915;PMS5003;50094;51.356;-0.196;2022-09-27T16:46:16;0;0;
63915;PMS5003;50094;51.356;-0.196;2022-09-27T16:48:43;0;0;
63915;PMS5003;50094;51.356;-0.196;2022-09-27T16:51:12;0;0;
63915;PMS5003;50094;51.356;-0.196;2022-09-27T16:53:42;1;1;
63915;PMS5003;50094;51.356;-0.196;2022-09-27T16:56:09;0;0;
63915;PMS5003;50094;51.356;-0.196;2022-09-27T16:58:36;2;1;
63915;PMS5003;50094;51.356;-0.196;2022-09-27T17:01:04;0;0;
63915;PMS5003;50094;51.356;-0.196;2022-09-27T17:03:31;0;0;
63915;PMS5003;50094;51.356;-0.196;2022-09-27T17:05:59;0;0;
63915;PMS5003;50094;51.356;-0.196;2022-09-27T17:08:27;0;0;